createdAt,value
2018-12-03T00:01:55.811Z,2.00
2018-12-03T00:04:25.709Z,1.80
2018-12-03T00:06:54.732Z,1.90
2018-12-03T00:09:24.948Z,1.80
2018-12-03T00:11:54.490Z,1.73
2018-12-03T00:14:23.785Z,1.70
2018-12-03T00:16:53.440Z,1.70
2018-12-03T00:19:22.566Z,1.70
2018-12-03T00:21:52.345Z,1.70
2018-12-03T00:24:21.654Z,1.80
2018-12-03T00:26:50.940Z,1.70
2018-12-03T00:29:20.259Z,1.80
2018-12-03T00:31:49.815Z,1.53
2018-12-03T00:34:19.703Z,1.80
2018-12-03T00:36:49.278Z,1.80
2018-12-03T00:39:18.586Z,1.80
2018-12-03T00:41:48.205Z,1.40
2018-12-03T00:44:17.839Z,1.67
2018-12-03T00:46:47.108Z,1.33
2018-12-03T00:49:16.556Z,1.70
2018-12-03T00:51:45.816Z,1.20
2018-12-03T00:54:15.083Z,1.40
2018-12-03T00:56:44.590Z,1.20
2018-12-03T00:59:13.852Z,1.20
2018-12-03T01:01:43.143Z,1.10
2018-12-03T01:04:12.814Z,1.10
2018-12-03T01:06:43.274Z,1.10
2018-12-03T01:09:13.272Z,1.13
2018-12-03T01:11:42.756Z,1.10
2018-12-03T01:14:12.006Z,0.90
2018-12-03T01:16:41.436Z,1.10
2018-12-03T01:19:10.840Z,0.97
2018-12-03T01:21:40.124Z,1.00
2018-12-03T01:24:09.399Z,0.90
2018-12-03T01:26:38.985Z,1.20
2018-12-03T01:29:08.541Z,1.10
2018-12-03T01:31:37.906Z,1.17
2018-12-03T01:34:07.173Z,0.90
2018-12-03T01:36:36.449Z,0.80
2018-12-03T01:39:08.534Z,1.20
2018-12-03T01:41:38.099Z,0.90
2018-12-03T01:44:07.391Z,0.90
2018-12-03T01:46:36.914Z,0.80
2018-12-03T01:49:06.107Z,1.00
2018-12-03T01:51:35.410Z,0.93
2018-12-03T01:54:06.157Z,1.10
2018-12-03T01:56:35.430Z,0.90
2018-12-03T01:59:05.651Z,0.90
2018-12-03T02:01:35.341Z,0.98
2018-12-03T02:04:04.900Z,0.90
2018-12-03T02:06:34.197Z,0.80
2018-12-03T02:09:04.839Z,0.80
2018-12-03T02:11:34.179Z,0.80
2018-12-03T02:14:03.787Z,0.87
2018-12-03T02:16:33.894Z,0.90
2018-12-03T02:19:03.196Z,0.80
2018-12-03T02:21:32.459Z,0.90
2018-12-03T02:24:02.041Z,0.80
2018-12-03T02:26:31.295Z,0.80
2018-12-03T02:29:00.612Z,0.80
2018-12-03T02:31:30.247Z,0.90
2018-12-03T02:33:59.577Z,0.80
2018-12-03T02:36:29.146Z,0.80
2018-12-03T02:38:58.419Z,0.90
2018-12-03T02:41:28.063Z,1.10
2018-12-03T02:43:57.119Z,0.80
2018-12-03T02:46:26.440Z,0.80
2018-12-03T02:48:55.712Z,0.80
2018-12-03T02:51:26.148Z,0.90
2018-12-03T02:53:55.679Z,0.80
2018-12-03T02:56:26.435Z,0.83
2018-12-03T02:58:55.714Z,0.90
2018-12-03T03:01:26.687Z,0.90
2018-12-03T03:03:56.186Z,1.50
2018-12-03T03:06:26.735Z,0.90
2018-12-03T03:08:56.247Z,0.80
2018-12-03T03:11:26.992Z,0.90
2018-12-03T03:13:56.480Z,0.90
2018-12-03T03:16:26.444Z,0.80
2018-12-03T03:18:55.758Z,1.10
2018-12-03T03:21:26.977Z,0.90
2018-12-03T03:23:56.289Z,0.80
2018-12-03T03:26:26.512Z,0.90
2018-12-03T03:28:55.823Z,0.87
2018-12-03T03:31:26.243Z,0.90
2018-12-03T03:33:55.491Z,0.90
2018-12-03T03:36:24.776Z,0.90
2018-12-03T03:38:54.278Z,0.97
2018-12-03T03:41:23.848Z,0.90
2018-12-03T03:43:55.049Z,0.90
2018-12-03T03:46:24.598Z,0.80
2018-12-03T03:48:53.856Z,0.80
2018-12-03T03:51:23.508Z,0.83
2018-12-03T03:53:52.801Z,1.00
2018-12-03T03:56:22.413Z,0.80
2018-12-03T03:58:51.683Z,0.80
2018-12-03T04:01:20.938Z,0.80
2018-12-03T04:03:50.622Z,0.80
2018-12-03T04:06:19.870Z,0.80
2018-12-03T04:08:49.407Z,0.80
2018-12-03T04:11:18.675Z,0.80
2018-12-03T04:13:47.956Z,0.90
2018-12-03T04:16:17.420Z,0.80
2018-12-03T04:18:46.712Z,0.80
2018-12-03T04:21:16.005Z,0.83
2018-12-03T04:23:45.522Z,0.90
2018-12-03T04:26:15.463Z,0.77
2018-12-03T04:28:45.097Z,0.80
2018-12-03T04:31:14.617Z,0.80
2018-12-03T04:33:43.904Z,0.90
2018-12-03T04:36:13.169Z,1.10
2018-12-03T04:38:42.748Z,0.80
2018-12-03T04:41:12.014Z,0.80
2018-12-03T04:43:41.752Z,0.90
2018-12-03T04:46:11.452Z,0.80
2018-12-03T04:48:40.761Z,0.90
2018-12-03T04:51:10.358Z,0.90
2018-12-03T04:53:39.744Z,0.90
2018-12-03T04:56:09.194Z,0.90
2018-12-03T04:58:38.831Z,0.90
2018-12-03T05:01:08.742Z,0.80
2018-12-03T05:03:38.046Z,0.90
2018-12-03T05:06:07.697Z,1.00
2018-12-03T05:08:37.262Z,0.97
2018-12-03T05:11:06.791Z,0.90
2018-12-03T05:13:36.104Z,0.90
2018-12-03T05:16:06.327Z,0.90
2018-12-03T05:18:35.841Z,0.90
2018-12-03T05:21:05.293Z,1.00
2018-12-03T05:23:34.915Z,0.80
2018-12-03T05:26:04.326Z,0.90
2018-12-03T05:28:34.116Z,1.00
2018-12-03T05:31:03.441Z,1.03
2018-12-03T05:33:33.225Z,1.00
2018-12-03T05:36:03.160Z,1.00
2018-12-03T05:38:32.477Z,0.90
2018-12-03T05:41:01.867Z,1.00
2018-12-03T05:43:31.753Z,1.00
2018-12-03T05:46:01.437Z,0.90
2018-12-03T05:48:30.971Z,0.80
2018-12-03T05:51:00.229Z,0.83
2018-12-03T05:53:29.508Z,0.90
2018-12-03T05:55:59.083Z,0.80
2018-12-03T05:58:28.425Z,1.00
2018-12-03T06:00:57.921Z,1.20
2018-12-03T06:03:27.585Z,1.00
2018-12-03T06:05:57.204Z,1.00
2018-12-03T06:08:27.536Z,0.80
2018-12-03T06:10:57.378Z,1.00
2018-12-03T06:13:27.550Z,0.93
2018-12-03T06:15:57.662Z,1.10
2018-12-03T06:18:27.359Z,0.83
2018-12-03T06:20:56.663Z,2.40
2018-12-03T06:23:27.277Z,6.40
2018-12-03T06:25:56.593Z,1.90
2018-12-03T06:28:27.017Z,4.67
2018-12-03T06:30:59.706Z,6.30
2018-12-03T06:33:31.338Z,4.73
2018-12-03T06:36:00.618Z,3.53
2018-12-03T06:38:30.227Z,3.90
2018-12-03T06:40:59.529Z,2.33
2018-12-03T06:43:29.276Z,1.85
2018-12-03T06:45:58.537Z,2.93
2018-12-03T06:48:27.805Z,1.40
2018-12-03T06:50:57.168Z,2.03
2018-12-03T06:53:27.412Z,2.20
2018-12-03T06:55:56.697Z,1.50
2018-12-03T06:58:27.134Z,1.47
2018-12-03T07:00:56.439Z,1.20
2018-12-03T07:03:26.824Z,1.10
2018-12-03T07:05:56.144Z,1.20
2018-12-03T07:08:25.450Z,1.00
2018-12-03T07:10:54.755Z,1.20
2018-12-03T07:13:24.274Z,1.80
2018-12-03T07:15:55.260Z,1.87
2018-12-03T07:18:25.046Z,1.47
2018-12-03T07:20:54.352Z,1.20
2018-12-03T07:23:23.621Z,3.17
2018-12-03T07:25:53.261Z,4.30
2018-12-03T07:28:22.563Z,1.40
2018-12-03T07:30:51.820Z,1.97
2018-12-03T07:33:21.323Z,1.80
2018-12-03T07:35:50.591Z,2.50
2018-12-03T07:38:19.579Z,2.93
2018-12-03T07:40:48.868Z,1.90
2018-12-03T07:43:18.421Z,8.87
2018-12-03T07:45:47.784Z,7.30
2018-12-03T07:48:17.070Z,8.97
2018-12-03T07:50:46.436Z,6.30
2018-12-03T07:53:18.570Z,6.57
2018-12-03T07:55:47.902Z,7.30
2018-12-03T07:58:19.224Z,8.53
2018-12-03T08:00:50.171Z,6.90
2018-12-03T08:03:19.418Z,4.00
2018-12-03T08:05:48.668Z,5.30
2018-12-03T08:08:17.988Z,4.30
2018-12-03T08:10:50.128Z,2.87
2018-12-03T08:13:20.090Z,2.13
2018-12-03T08:15:49.641Z,1.60
2018-12-03T08:18:21.461Z,1.30
2018-12-03T08:20:55.103Z,1.07
2018-12-03T08:23:37.233Z,1.00
2018-12-03T08:26:08.509Z,1.07
2018-12-03T08:28:38.009Z,1.10
2018-12-03T08:31:07.596Z,1.10
2018-12-03T08:33:36.953Z,1.03
2018-12-03T08:36:07.810Z,1.00
2018-12-03T08:38:39.265Z,1.00
2018-12-03T08:41:08.095Z,0.87
2018-12-03T08:43:38.117Z,1.10
2018-12-03T08:46:09.427Z,1.20
2018-12-03T08:48:41.305Z,1.07
2018-12-03T08:51:12.220Z,0.90
2018-12-03T08:53:45.101Z,0.90
2018-12-03T08:56:14.445Z,0.90
2018-12-03T08:58:44.053Z,0.83
2018-12-03T09:01:17.530Z,0.90
2018-12-03T09:03:53.051Z,1.17
2018-12-03T09:06:22.354Z,1.07
2018-12-03T09:08:52.417Z,1.13
2018-12-03T09:11:23.110Z,1.10
2018-12-03T09:13:52.907Z,0.90
2018-12-03T09:16:22.219Z,0.93
2018-12-03T09:18:51.771Z,1.00
2018-12-03T09:21:21.062Z,1.13
2018-12-03T09:23:50.742Z,1.00
2018-12-03T09:26:19.996Z,1.00
2018-12-03T09:28:49.316Z,0.90
2018-12-03T09:31:21.489Z,1.07
2018-12-03T09:33:58.327Z,1.00
2018-12-03T09:36:29.296Z,1.00
2018-12-03T09:39:12.011Z,1.20
2018-12-03T09:41:42.015Z,1.20
2018-12-03T09:44:11.361Z,1.00
2018-12-03T09:46:41.228Z,1.10
2018-12-03T09:49:10.540Z,1.10
2018-12-03T09:51:40.055Z,0.90
2018-12-03T09:54:10.686Z,1.20
2018-12-03T09:56:46.749Z,0.90
2018-12-03T09:59:20.119Z,1.20
2018-12-03T10:01:51.107Z,1.10
2018-12-03T10:04:29.945Z,1.00
2018-12-03T10:06:59.354Z,1.20
2018-12-03T10:09:33.157Z,1.30
2018-12-03T10:12:02.816Z,1.13
2018-12-03T10:14:32.127Z,0.90
2018-12-03T10:17:01.450Z,1.13
2018-12-03T10:19:30.726Z,0.90
2018-12-03T10:22:00.401Z,1.00
2018-12-03T10:24:29.976Z,1.50
2018-12-03T10:27:03.809Z,1.10
2018-12-03T10:29:33.408Z,1.20
2018-12-03T10:32:02.690Z,1.00
2018-12-03T10:34:32.643Z,1.40
2018-12-03T10:37:02.135Z,1.30
2018-12-03T10:39:34.318Z,1.30
2018-12-03T10:42:14.563Z,1.63
2018-12-03T10:44:44.584Z,1.20
2018-12-03T10:47:14.202Z,1.10
2018-12-03T10:49:43.561Z,0.90
2018-12-03T10:52:18.323Z,1.10
2018-12-03T10:54:47.886Z,1.10
2018-12-03T10:57:17.222Z,1.10
2018-12-03T10:59:53.903Z,1.20
2018-12-03T11:02:32.241Z,1.00
2018-12-03T11:05:07.291Z,1.00
2018-12-03T11:07:36.627Z,1.13
2018-12-03T11:10:07.634Z,1.10
2018-12-03T11:12:37.169Z,1.20
2018-12-03T11:15:12.806Z,1.10
2018-12-03T11:17:42.409Z,1.10
2018-12-03T11:20:11.684Z,1.10
2018-12-03T11:22:41.115Z,1.00
2018-12-03T11:25:13.751Z,1.27
2018-12-03T11:27:45.643Z,1.30
2018-12-03T11:30:14.786Z,1.10
2018-12-03T11:32:44.533Z,1.20
2018-12-03T11:35:13.842Z,1.20
2018-12-03T11:37:46.656Z,1.20
2018-12-03T11:40:23.646Z,1.20
2018-12-03T11:42:54.211Z,1.20
2018-12-03T11:45:23.981Z,1.10
2018-12-03T11:47:53.863Z,1.00
2018-12-03T11:50:23.409Z,1.30
2018-12-03T11:52:52.689Z,1.30
2018-12-03T11:55:21.999Z,1.27
2018-12-03T11:57:51.447Z,1.13
2018-12-03T12:00:20.632Z,1.20
2018-12-03T12:02:49.923Z,1.10
2018-12-03T12:05:20.602Z,1.10
2018-12-03T12:07:49.894Z,1.10
2018-12-03T12:10:19.411Z,1.00
2018-12-03T12:12:48.591Z,1.17
2018-12-03T12:15:17.772Z,1.17
2018-12-03T12:17:47.117Z,1.40
2018-12-03T12:20:16.632Z,1.40
2018-12-03T12:22:45.965Z,1.20
2018-12-03T12:25:15.652Z,1.60
2018-12-03T12:27:50.444Z,1.10
2018-12-03T12:30:22.477Z,1.30
2018-12-03T12:36:13.312Z,1.40
2018-12-03T12:38:45.916Z,1.30
2018-12-03T12:41:16.546Z,1.30
2018-12-03T12:43:46.297Z,1.30
2018-12-03T12:46:18.551Z,1.00
2018-12-03T12:48:47.870Z,1.13
2018-12-03T12:51:17.268Z,1.40
2018-12-03T12:53:46.883Z,1.17
2018-12-03T12:56:16.824Z,1.60
2018-12-03T12:58:46.163Z,1.30
2018-12-03T13:01:15.437Z,1.40
2018-12-03T13:03:44.974Z,1.30
2018-12-03T13:06:14.236Z,1.13
2018-12-03T13:08:43.972Z,1.00
2018-12-03T13:11:14.276Z,1.23
2018-12-03T13:13:44.183Z,1.40
2018-12-03T13:16:13.740Z,1.40
2018-12-03T13:18:43.048Z,1.20
2018-12-03T13:21:12.355Z,1.20
2018-12-03T13:23:41.902Z,1.20
2018-12-03T13:26:11.511Z,1.13
2018-12-03T13:28:40.908Z,1.30
2018-12-03T13:31:10.673Z,1.10
2018-12-03T13:33:40.766Z,1.40
2018-12-03T13:36:11.153Z,1.30
2018-12-03T13:38:40.703Z,1.10
2018-12-03T13:41:10.255Z,1.10
2018-12-03T13:43:39.594Z,1.10
2018-12-03T13:46:09.280Z,1.23
2018-12-03T13:48:39.488Z,1.30
2018-12-03T13:51:09.386Z,1.40
2018-12-03T13:53:38.978Z,1.50
2018-12-03T13:56:08.584Z,1.30
2018-12-03T13:58:38.147Z,1.22
2018-12-03T14:01:08.442Z,1.30
2018-12-03T14:03:39.223Z,1.20
2018-12-03T14:06:13.015Z,1.30
2018-12-03T14:11:57.942Z,1.40
2018-12-03T14:14:41.786Z,1.30
2018-12-03T14:17:15.564Z,1.33
2018-12-03T14:19:48.601Z,1.60
2018-12-03T14:22:21.466Z,1.20
2018-12-03T14:24:51.561Z,1.70
2018-12-03T14:27:21.094Z,1.17
2018-12-03T14:29:51.314Z,1.03
2018-12-03T14:32:20.661Z,1.20
2018-12-03T14:34:50.359Z,1.17
2018-12-03T14:37:19.683Z,1.40
2018-12-03T14:39:49.221Z,1.30
2018-12-03T14:42:18.719Z,1.23
2018-12-03T14:44:49.333Z,1.27
2018-12-03T14:47:19.150Z,1.20
2018-12-03T14:49:48.518Z,1.40
2018-12-03T14:52:17.830Z,1.20
2018-12-03T14:54:47.379Z,1.30
2018-12-03T14:57:16.912Z,1.43
2018-12-03T14:59:46.545Z,1.60
2018-12-03T15:02:16.223Z,1.43
2018-12-03T15:04:45.670Z,1.40
2018-12-03T15:07:15.283Z,1.20
2018-12-03T15:09:45.563Z,1.20
2018-12-03T15:12:15.362Z,1.30
2018-12-03T15:14:45.955Z,1.60
2018-12-03T15:17:15.255Z,1.50
2018-12-03T15:19:44.544Z,1.30
2018-12-03T15:22:13.869Z,1.20
2018-12-03T15:24:43.653Z,1.40
2018-12-03T15:27:13.232Z,1.40
2018-12-03T15:29:42.842Z,1.50
2018-12-03T15:32:12.482Z,1.33
2018-12-03T15:34:42.089Z,1.43
2018-12-03T15:37:11.470Z,1.30
2018-12-03T15:39:40.966Z,1.50
2018-12-03T15:42:10.370Z,1.20
2018-12-03T15:44:39.699Z,1.40
2018-12-03T15:47:09.232Z,1.57
2018-12-03T15:49:40.466Z,1.45
2018-12-03T15:52:09.901Z,1.37
2018-12-03T15:54:39.563Z,1.60
2018-12-03T15:57:08.872Z,1.50
2018-12-03T15:59:38.454Z,1.67
2018-12-03T16:02:08.068Z,1.40
2018-12-03T16:04:37.607Z,1.40
2018-12-03T16:07:06.935Z,1.37
2018-12-03T16:09:36.551Z,1.30
2018-12-03T16:12:05.878Z,1.37
2018-12-03T16:14:35.467Z,1.40
2018-12-03T16:17:07.740Z,1.30
2018-12-03T16:19:37.750Z,2.17
2018-12-03T16:22:07.062Z,1.43
2018-12-03T16:24:36.636Z,1.30
2018-12-03T16:27:05.939Z,1.20
2018-12-03T16:29:36.307Z,1.40
2018-12-03T16:32:05.656Z,1.30
2018-12-03T16:34:35.010Z,1.40
2018-12-03T16:37:04.564Z,1.30
2018-12-03T16:39:33.897Z,1.40
2018-12-03T16:42:03.193Z,1.30
2018-12-03T16:44:32.929Z,1.50
2018-12-03T16:47:02.211Z,1.20
2018-12-03T16:49:33.078Z,1.50
2018-12-03T16:52:02.940Z,1.90
2018-12-03T16:54:32.510Z,1.43
2018-12-03T16:57:01.841Z,1.50
2018-12-03T16:59:33.976Z,1.50
2018-12-03T17:02:04.132Z,1.40
2018-12-03T17:04:33.988Z,1.50
2018-12-03T17:07:03.293Z,1.20
2018-12-03T17:09:36.606Z,1.33
2018-12-03T17:12:08.118Z,1.40
2018-12-03T17:14:37.671Z,1.50
2018-12-03T17:17:07.437Z,1.20
2018-12-03T17:19:42.541Z,1.30
2018-12-03T17:22:38.841Z,1.50
2018-12-03T17:25:13.100Z,1.37
2018-12-03T17:27:43.278Z,1.30
2018-12-03T17:30:14.617Z,1.70
2018-12-03T17:32:44.054Z,1.20
2018-12-03T17:35:13.591Z,1.40
2018-12-03T17:37:43.211Z,1.50
2018-12-03T17:40:12.963Z,1.50
2018-12-03T17:42:42.299Z,1.20
2018-12-03T17:45:14.275Z,1.30
2018-12-03T17:47:43.825Z,1.50
2018-12-03T17:50:13.575Z,1.70
2018-12-03T17:52:43.345Z,1.50
2018-12-03T17:55:12.898Z,1.40
2018-12-03T17:57:44.104Z,1.33
2018-12-03T18:00:14.434Z,1.73
2018-12-03T18:02:44.749Z,1.60
2018-12-03T18:05:14.528Z,1.30
2018-12-03T18:07:44.163Z,1.50
2018-12-03T18:10:14.032Z,1.57
2018-12-03T18:12:44.480Z,1.73
2018-12-03T18:15:14.355Z,1.40
2018-12-03T18:17:43.690Z,1.53
2018-12-03T18:20:13.130Z,1.90
2018-12-03T18:22:42.834Z,1.63
2018-12-03T18:25:12.169Z,1.40
2018-12-03T18:27:41.826Z,1.50
2018-12-03T18:30:11.095Z,1.57
2018-12-03T18:32:40.713Z,1.67
2018-12-03T18:35:10.259Z,1.70
2018-12-03T18:37:40.024Z,1.60
2018-12-03T18:40:10.593Z,1.67
2018-12-03T18:42:41.628Z,1.80
2018-12-03T18:45:11.323Z,1.63
2018-12-03T18:47:40.655Z,1.73
2018-12-03T18:50:16.576Z,1.90
2018-12-03T18:52:46.167Z,1.35
2018-12-03T18:55:15.759Z,1.57
2018-12-03T18:57:47.871Z,1.40
2018-12-03T19:00:17.132Z,1.60
2018-12-03T19:02:46.751Z,1.40
2018-12-03T19:05:16.664Z,1.30
2018-12-03T19:07:46.618Z,1.97
2018-12-03T19:10:16.029Z,2.13
2018-12-03T19:12:46.405Z,1.50
2018-12-03T19:15:15.569Z,1.33
2018-12-03T19:17:44.981Z,1.30
2018-12-03T19:20:14.293Z,1.33
2018-12-03T19:22:43.921Z,1.53
2018-12-03T19:25:13.809Z,1.87
2018-12-03T19:27:43.646Z,1.65
2018-12-03T19:30:15.077Z,2.30
2018-12-03T19:32:46.369Z,1.40
2018-12-03T19:35:37.586Z,1.70
2018-12-03T19:38:09.571Z,1.97
2018-12-03T19:40:39.115Z,2.80
2018-12-03T19:43:08.729Z,1.87
2018-12-03T19:45:39.254Z,1.70
2018-12-03T19:48:08.621Z,1.80
2018-12-03T19:50:38.007Z,2.43
2018-12-03T19:53:07.719Z,2.17
2018-12-03T19:55:37.980Z,1.90
2018-12-03T19:58:12.394Z,2.20
2018-12-03T20:00:42.698Z,1.80
2018-12-03T20:03:12.299Z,1.90
2018-12-03T20:05:41.964Z,1.77
2018-12-03T20:08:12.696Z,2.10
2018-12-03T20:10:42.942Z,1.50
2018-12-03T20:13:13.343Z,1.70
2018-12-03T20:15:42.755Z,1.93
2018-12-03T20:18:13.753Z,1.50
2018-12-03T20:20:53.665Z,1.13
2018-12-03T20:23:31.411Z,1.37
2018-12-03T20:26:08.061Z,1.13
2018-12-03T20:28:47.540Z,1.20
2018-12-03T20:32:42.355Z,1.17
2018-12-03T20:35:19.869Z,1.00
2018-12-03T20:40:13.952Z,1.13
2018-12-03T20:42:46.318Z,1.20
2018-12-03T20:46:23.654Z,1.40
2018-12-03T20:50:24.432Z,1.00
2018-12-03T20:52:55.255Z,1.30
2018-12-03T20:55:35.512Z,1.20
2018-12-03T20:58:04.820Z,1.30
2018-12-03T21:00:34.574Z,1.60
2018-12-03T21:03:04.328Z,1.13
2018-12-03T21:05:33.934Z,1.13
2018-12-03T21:08:03.267Z,1.30
2018-12-03T21:10:33.476Z,1.40
2018-12-03T21:13:02.868Z,1.20
2018-12-03T21:15:32.157Z,1.10
2018-12-03T21:18:01.916Z,1.30
2018-12-03T21:20:37.955Z,1.43
2018-12-03T21:23:07.331Z,1.40
2018-12-03T21:25:36.914Z,1.37
2018-12-03T21:28:06.587Z,1.40
2018-12-03T21:30:36.176Z,1.17
2018-12-03T21:33:05.796Z,1.27
2018-12-03T21:35:35.123Z,1.10
2018-12-03T21:38:04.875Z,1.40
2018-12-03T21:40:34.169Z,1.30
2018-12-03T21:43:03.764Z,1.37
2018-12-03T21:45:33.106Z,1.40
2018-12-03T21:48:03.747Z,1.30
2018-12-03T21:50:33.271Z,1.20
2018-12-03T21:53:02.606Z,1.30
2018-12-03T21:55:32.586Z,1.10
2018-12-03T21:58:02.158Z,1.40
2018-12-03T22:00:31.635Z,1.57
2018-12-03T22:03:02.297Z,1.30
2018-12-03T22:05:31.624Z,1.10
2018-12-03T22:08:01.846Z,1.17
2018-12-03T22:10:31.417Z,1.23
2018-12-03T22:13:01.063Z,1.20
2018-12-03T22:15:31.196Z,1.30
2018-12-03T22:18:00.939Z,1.30
2018-12-03T22:20:31.267Z,1.30
2018-12-03T22:23:00.597Z,1.10
2018-12-03T22:25:31.198Z,1.40
2018-12-03T22:28:00.496Z,1.37
2018-12-03T22:30:30.886Z,1.20
2018-12-03T22:33:00.227Z,1.30
2018-12-03T22:35:29.667Z,1.20
2018-12-03T22:37:59.254Z,1.27
2018-12-03T22:40:28.684Z,1.20
2018-12-03T22:42:58.240Z,1.03
2018-12-03T22:45:27.430Z,1.23
2018-12-03T22:47:57.945Z,1.30
2018-12-03T22:50:27.223Z,1.10
2018-12-03T22:52:56.550Z,1.37
2018-12-03T22:55:25.907Z,1.03
2018-12-03T22:57:55.212Z,1.37
2018-12-03T23:00:31.629Z,1.30
2018-12-03T23:03:01.542Z,1.30
2018-12-03T23:05:31.508Z,1.10
2018-12-03T23:08:00.907Z,1.13
2018-12-03T23:10:31.516Z,1.05
2018-12-03T23:13:01.140Z,1.10
2018-12-03T23:15:31.460Z,1.10
2018-12-03T23:18:01.201Z,1.10
2018-12-03T23:20:31.522Z,1.10
2018-12-03T23:23:00.785Z,1.20
2018-12-03T23:25:31.228Z,1.40
2018-12-03T23:28:00.516Z,1.20
2018-12-03T23:30:29.757Z,1.10
2018-12-03T23:32:59.274Z,1.30
2018-12-03T23:35:28.558Z,1.23
2018-12-03T23:37:58.414Z,1.20
2018-12-03T23:40:27.679Z,1.10
2018-12-03T23:42:56.986Z,1.13
2018-12-03T23:45:27.241Z,1.30
2018-12-03T23:47:56.490Z,1.23
2018-12-03T23:50:25.795Z,1.50
2018-12-03T23:52:55.096Z,1.30
2018-12-03T23:55:24.479Z,1.30
2018-12-03T23:57:53.801Z,1.40
